Time;durP1;ratioP1;P1;durP2;ratioP2;P2;SDS_P1;SDS_P2;PMS_P1;PMS_P2;Temp;Humidity;BMP_temperature;BMP_pressure;BME280_temperature;BME280_humidity;BME280_pressure;Samples;Min_cycle;Max_cycle;Signal;HPM_P1;HPM_P2
2022/01/09 00:00:37;;;;;;;7.32;3.50;;;;;;;-1.09;57.92;91598.28;5063694;28;20028;-90
2022/01/09 00:03:20;;;;;;;;;;;;;;;;;;;;;
2022/01/09 00:06:00;;;;;;;17.95;8.88;;;;;;;-1.22;65.09;91579.88;5096876;28;20044;-90
2022/01/09 00:08:44;;;;;;;15.18;7.78;;;;;;;-0.86;64.55;91653.84;5062202;28;20040;-90
2022/01/09 00:11:56;;;;;;;;;;;;;;;;;;;;;
2022/01/09 00:14:33;;;;;;;7.55;3.78;;;;;;;-1.32;62.55;91593.34;5079652;28;20672;-90
2022/01/09 00:17:29;;;;;;;6.93;3.67;;;;;;;-1.31;60.40;91579.50;5086424;28;20041;-91
2022/01/09 00:21:07;;;;;;;;;;;;;;;;;;;;;
2022/01/09 00:23:47;;;;;;;6.50;3.83;;;;;;;-1.28;60.80;91591.88;5099222;28;20058;-91
2022/01/09 00:26:50;;;;;;;7.97;3.50;;;;;;;-1.04;60.79;91592.44;5070360;28;20082;-90
2022/01/09 00:32:48;;;;;;;21.88;10.32;;;;;;;-1.10;67.75;91568.50;5059962;28;20071;-90
2022/01/09 00:35:51;;;;;;;;;;;;;;;;;;;;;
2022/01/09 00:39:27;;;;;;;;;;;;;;;;;;;;;
2022/01/09 00:42:20;;;;;;;13.48;9.02;;;;;;;-1.56;67.87;91536.28;5096022;28;20157;-90
2022/01/09 00:45:14;;;;;;;14.68;7.30;;;;;;;-1.58;67.68;91533.94;5061976;28;20040;-91
2022/01/09 00:48:03;;;;;;;;;;;;;;;;;;;;;
2022/01/09 00:51:04;;;;;;;15.38;8.90;;;;;;;-1.17;68.92;91595.34;5081723;28;20043;-90
2022/01/09 00:53:41;;;;;;;17.70;9.20;;;;;;;-1.34;68.97;91570.47;5062637;28;20040;-91
2022/01/09 00:56:33;;;;;;;17.60;9.25;;;;;;;-1.19;69.84;91595.59;5061442;28;20101;-91
2022/01/09 00:59:51;;;;;;;15.30;8.18;;;;;;;-1.52;69.02;91527.88;5067543;28;20095;-90
2022/01/09 01:02:37;;;;;;;16.02;8.60;;;;;;;-1.29;68.74;91560.25;5079311;28;20546;-90
2022/01/09 01:05:40;;;;;;;13.63;7.65;;;;;;;-1.28;68.00;91548.22;5079403;28;20046;-90
2022/01/09 01:08:35;;;;;;;17.20;7.32;;;;;;;-1.28;67.24;91530.25;5061512;28;20060;-90
2022/01/09 01:11:14;;;;;;;13.15;7.35;;;;;;;-1.53;66.44;91482.69;5081855;28;20040;-90
2022/01/09 01:14:12;;;;;;;17.02;7.75;;;;;;;-1.51;65.71;91472.16;5100915;28;20036;-90
2022/01/09 01:17:10;;;;;;;12.90;6.55;;;;;;;-1.10;65.10;91511.97;5081156;28;20044;-90
2022/01/09 01:19:41;;;;;;;12.68;6.38;;;;;;;-1.43;64.60;91453.03;5081438;28;20431;-90
2022/01/09 01:22:41;;;;;;;10.43;5.70;;;;;;;-1.24;61.76;91444.00;5086209;28;20475;-90
2022/01/09 01:25:40;;;;;;;10.60;5.40;;;;;;;-1.23;61.18;91437.88;5080665;28;20049;-90
2022/01/09 01:29:03;;;;;;;12.93;6.85;;;;;;;-1.07;60.82;91452.41;5085974;28;20054;-91
2022/01/09 01:32:03;;;;;;;11.35;6.32;;;;;;;-0.97;62.00;91481.81;5081369;28;20031;-90
2022/01/09 01:34:49;;;;;;;10.38;5.55;;;;;;;-1.20;62.22;91450.22;5081357;28;20035;-89
2022/01/09 01:37:58;;;;;;;12.82;6.53;;;;;;;-1.22;62.42;91449.66;5098955;28;20048;-90
2022/01/09 01:40:48;;;;;;;;;;;;;;;;;;;;;
2022/01/09 01:43:33;;;;;;;;;;;;;;;;;;;;;
2022/01/09 01:46:27;;;;;;;9.98;5.22;;;;;;;-1.06;63.66;91445.47;5062149;28;20044;-90
2022/01/09 01:49:31;;;;;;;10.15;5.20;;;;;;;-1.09;63.94;91436.47;5063370;28;20054;-90
2022/01/09 01:52:15;;;;;;;10.65;5.63;;;;;;;-1.20;61.98;91416.06;5076921;28;20132;-90
2022/01/09 01:54:48;;;;;;;9.82;5.05;;;;;;;-0.87;61.71;91463.94;5060540;28;20039;-90
2022/01/09 01:57:40;;;;;;;7.72;4.70;;;;;;;-1.17;61.53;91403.53;5064273;28;20046;-90
2022/01/09 02:00:29;;;;;;;8.38;4.50;;;;;;;-1.23;60.39;91394.22;5060090;28;20059;-91
2022/01/09 02:03:57;;;;;;;10.18;4.70;;;;;;;-1.14;59.78;91397.91;5081858;28;20038;-90
2022/01/09 02:07:06;;;;;;;7.85;4.05;;;;;;;-1.30;59.39;91375.66;5080049;28;20032;-89
2022/01/09 02:10:13;;;;;;;;;;;;;;;;;;;;;
2022/01/09 02:13:09;;;;;;;6.20;3.42;;;;;;;-1.16;58.99;91384.50;5114490;28;20111;-90
2022/01/09 02:16:23;;;;;;;11.90;5.55;;;;;;;-0.86;62.13;91429.50;5082695;28;20096;-90
2022/01/09 02:19:08;;;;;;;;;;;;;;;;;;;;;
2022/01/09 02:21:59;;;;;;;14.60;6.97;;;;;;;-0.95;62.70;91420.69;5063677;28;20109;-90
2022/01/09 02:25:00;;;;;;;;;;;;;;;;;;;;;
2022/01/09 02:27:51;;;;;;;10.93;5.97;;;;;;;-1.33;64.97;91368.41;5079282;28;20058;-90
2022/01/09 02:30:33;;;;;;;17.90;9.23;;;;;;;-0.96;65.51;91414.00;5079289;28;20042;-90
2022/01/09 02:33:21;;;;;;;9.23;5.70;;;;;;;-1.17;66.97;91398.38;5059426;28;20032;-90
2022/01/09 02:36:40;;;;;;;;;;;;;;;;;;;;;
2022/01/09 02:39:27;;;;;;;19.15;9.45;;;;;;;-1.05;67.59;91386.16;5061420;28;20075;-90
2022/01/09 02:42:06;;;;;;;21.43;10.83;;;;;;;-1.49;68.24;91347.72;5060404;28;20039;-90
2022/01/09 02:44:58;;;;;;;16.60;9.13;;;;;;;-1.49;68.29;91365.69;5075931;28;20027;-90
2022/01/09 02:48:11;;;;;;;;;;;;;;;;;;;;;
2022/01/09 02:51:22;;;;;;;17.48;8.93;;;;;;;-1.61;69.97;91352.19;5080777;28;20032;-90
2022/01/09 02:55:06;;;;;;;17.00;8.75;;;;;;;-1.62;69.72;91344.72;5093132;28;20085;-91
2022/01/09 02:57:24;;;;;;;17.67;8.90;;;;;;;-1.21;68.81;91397.31;5076115;28;20044;-90
2022/01/09 03:00:46;;;;;;;18.83;9.00;;;;;;;-1.35;68.89;91365.31;5052988;28;20089;-90
2022/01/09 03:03:57;;;;;;;14.27;7.40;;;;;;;-1.63;68.88;91323.44;5077671;28;20032;-91
2022/01/09 03:06:48;;;;;;;12.85;7.50;;;;;;;-1.19;68.57;91385.00;5046776;28;20047;-90
2022/01/09 03:09:29;;;;;;;16.45;7.65;;;;;;;-1.69;67.88;91309.00;5059543;28;20043;-91
2022/01/09 03:12:17;;;;;;;;;;;;;;;;;;;;;
2022/01/09 03:15:40;;;;;;;25.05;11.38;;;;;;;-1.70;71.49;91313.34;5078058;28;20481;-91
2022/01/09 03:18:34;;;;;;;22.98;11.93;;;;;;;-1.72;72.26;91299.97;5075653;28;20044;-90
2022/01/09 03:21:12;;;;;;;24.48;12.93;;;;;;;-1.48;72.63;91341.56;5059197;28;20130;-93
2022/01/09 03:24:02;;;;;;;19.65;11.00;;;;;;;-1.30;73.04;91367.94;5073496;28;20028;-91
2022/01/09 03:26:43;;;;;;;18.83;10.45;;;;;;;-1.48;72.06;91344.13;5065517;28;20047;-90
2022/01/09 03:29:39;;;;;;;21.70;10.32;;;;;;;-1.26;71.06;91361.31;5095195;28;20048;-91
2022/01/09 03:32:19;;;;;;;17.77;9.98;;;;;;;-1.71;70.64;91295.66;5068643;28;20039;-90
2022/01/09 03:35:21;;;;;;;21.27;10.32;;;;;;;-1.67;71.07;91299.25;5081157;28;20051;-90
2022/01/09 03:37:59;;;;;;;17.10;9.20;;;;;;;-1.72;69.16;91294.09;5078680;28;20489;-91
2022/01/09 03:40:48;;;;;;;17.83;9.48;;;;;;;-1.72;69.40;91289.72;5063184;28;20040;-90
2022/01/09 03:43:47;;;;;;;17.48;9.07;;;;;;;-1.74;69.95;91285.84;5051428;28;20054;-90
2022/01/09 03:46:35;;;;;;;20.90;10.75;;;;;;;-1.73;70.07;91288.19;5059827;28;20084;-91
2022/01/09 03:49:06;;;;;;;19.25;10.80;;;;;;;-1.60;70.15;91292.19;5058609;28;20036;-91
2022/01/09 03:51:50;;;;;;;17.58;10.48;;;;;;;-1.44;70.40;91316.19;5059226;28;20726;-90
2022/01/09 03:54:21;;;;;;;19.92;10.68;;;;;;;-1.21;70.86;91345.94;5075285;28;20036;-90
2022/01/09 03:57:05;;;;;;;19.17;11.20;;;;;;;-1.66;70.50;91271.84;5074749;28;20036;-90
2022/01/09 03:59:36;;;;;;;16.23;9.60;;;;;;;-1.42;70.97;91297.97;5058031;28;20047;-90
2022/01/09 04:02:29;;;;;;;16.20;9.52;;;;;;;-1.69;70.36;91257.66;5075064;28;20029;-90
2022/01/09 04:05:33;;;;;;;20.23;9.48;;;;;;;-1.71;70.06;91264.84;5061570;28;20399;-90
2022/01/09 04:11:35;;;;;;;18.45;9.23;;;;;;;-1.73;70.47;91284.84;5059077;28;20067;-90
2022/01/09 04:14:35;;;;;;;18.15;10.30;;;;;;;-1.75;70.82;91290.22;5058722;28;20042;-90
2022/01/09 04:17:15;;;;;;;17.52;9.80;;;;;;;-1.33;71.70;91353.00;5061592;28;20120;-90
2022/01/09 04:20:01;;;;;;;21.33;11.55;;;;;;;-1.50;72.98;91332.56;5059443;28;20041;-90
2022/01/09 04:22:53;;;;;;;25.30;12.82;;;;;;;-1.77;72.96;91302.50;5042204;28;20044;-91
2022/01/09 04:25:55;;;;;;;21.08;11.48;;;;;;;-1.84;72.68;91289.09;5054088;28;20040;-90
2022/01/09 04:28:49;;;;;;;18.98;10.55;;;;;;;-1.94;72.71;91278.69;5075264;28;20073;-90
2022/01/09 04:31:27;;;;;;;17.33;9.80;;;;;;;-1.71;72.80;91321.31;5096381;28;20510;-91
2022/01/09 04:34:46;;;;;;;17.63;9.95;;;;;;;-2.08;71.84;91259.56;5078128;28;20032;-90
2022/01/09 04:37:42;;;;;;;15.75;8.20;;;;;;;-1.97;71.03;91274.81;5060945;28;20049;-90
2022/01/09 04:40:36;;;;;;;11.85;6.70;;;;;;;-2.11;70.22;91253.13;5094281;28;20484;-90
2022/01/09 04:43:36;;;;;;;12.15;5.53;;;;;;;-1.71;68.59;91319.50;5088934;28;20041;-90
2022/01/09 04:46:40;;;;;;;;;;;;;;;;;;;;;
2022/01/09 04:49:37;;;;;;;12.95;6.82;;;;;;;-1.83;69.46;91320.63;5083133;28;20058;-90
2022/01/09 04:52:36;;;;;;;;;;;;;;;;;;;;;
2022/01/09 04:55:30;;;;;;;;;;;;;;;;;;;;;
2022/01/09 04:58:05;;;;;;;14.07;7.35;;;;;;;-2.38;70.54;91256.41;5077841;28;20040;-89
2022/01/09 05:00:59;;;;;;;13.20;6.32;;;;;;;-2.44;70.21;91254.00;5089325;28;20485;-90
2022/01/09 05:03:56;;;;;;;12.00;5.63;;;;;;;-2.49;68.47;91272.66;5100734;28;20066;-90
2022/01/09 05:07:05;;;;;;;;;;;;;;;;;;;;;
2022/01/09 05:10:06;;;;;;;9.63;5.18;;;;;;;-2.65;67.63;91250.41;5064740;28;20044;-91
2022/01/09 05:16:00;;;;;;;;;;;;;;;;;;;;;
2022/01/09 05:19:01;;;;;;;13.52;6.65;;;;;;;-2.58;68.83;91251.78;5080200;28;20043;-89
2022/01/09 05:22:22;;;;;;;9.55;5.53;;;;;;;-2.57;69.10;91248.22;5079133;28;20050;-89
2022/01/09 05:25:02;;;;;;;10.52;5.55;;;;;;;-2.55;69.15;91219.78;5080067;28;20055;-91
2022/01/09 05:30:44;;;;;;;12.90;5.35;;;;;;;-2.40;69.00;91263.53;5080656;28;20392;-92
2022/01/09 05:33:30;;;;;;;;;;;;;;;;;;;;;
2022/01/09 05:36:13;;;;;;;10.10;5.35;;;;;;;-2.42;68.99;91257.13;5086538;28;20058;-92
2022/01/09 05:38:57;;;;;;;10.98;5.35;;;;;;;-2.47;68.63;91236.56;5074034;28;20392;-90
2022/01/09 05:42:06;;;;;;;;;;;;;;;;;;;;;
2022/01/09 05:44:38;;;;;;;13.98;5.38;;;;;;;-2.26;69.17;91288.84;5093473;28;20031;-91
2022/01/09 05:47:26;;;;;;;13.10;6.22;;;;;;;-2.42;68.95;91267.38;5080574;28;20488;-90
2022/01/09 05:50:25;;;;;;;11.20;6.30;;;;;;;-2.60;69.25;91253.03;5082113;28;20040;-89
2022/01/09 05:53:16;;;;;;;11.40;5.60;;;;;;;-2.65;69.65;91251.19;5071883;28;20071;-91
2022/01/09 05:56:20;;;;;;;10.35;5.60;;;;;;;-2.73;69.30;91244.66;5098829;28;20046;-92
2022/01/09 05:58:58;;;;;;;10.18;5.22;;;;;;;-2.78;69.33;91236.91;5080606;28;20079;-90
2022/01/09 06:01:38;;;;;;;10.77;5.25;;;;;;;-2.76;69.45;91247.69;5063507;28;20039;-90
2022/01/09 06:04:35;;;;;;;8.18;4.78;;;;;;;-2.57;69.33;91266.16;5064873;28;20036;-90
2022/01/09 06:07:34;;;;;;;8.10;4.45;;;;;;;-2.90;69.07;91220.88;5046358;28;20048;-90
2022/01/09 06:10:41;;;;;;;;;;;;;;;;;;;;;
2022/01/09 06:13:39;;;;;;;;;;;;;;;;;;;;;
2022/01/09 06:16:29;;;;;;;8.07;4.55;;;;;;;-2.41;66.43;91245.84;5075924;28;20068;-90
2022/01/09 06:19:23;;;;;;;7.82;4.45;;;;;;;-2.65;66.80;91225.56;5044486;28;20051;-90
2022/01/09 06:22:03;;;;;;;9.57;4.65;;;;;;;-2.69;66.85;91228.84;5059173;28;20077;-90
2022/01/09 06:24:52;;;;;;;9.27;3.97;;;;;;;-2.60;66.75;91253.81;5056906;28;20527;-91
2022/01/09 06:28:02;;;;;;;6.28;3.72;;;;;;;-2.63;67.28;91261.19;5080218;28;20063;-91
2022/01/09 06:31:17;;;;;;;7.22;3.67;;;;;;;-2.87;67.56;91233.19;5080251;28;20039;-91
2022/01/09 06:37:01;;;;;;;7.55;3.85;;;;;;;-2.90;66.52;91243.94;5088378;28;20040;-90
2022/01/09 06:39:56;;;;;;;6.50;3.65;;;;;;;-2.90;66.46;91249.03;5060239;28;20032;-90
2022/01/09 06:42:38;;;;;;;10.07;3.80;;;;;;;-2.88;67.04;91254.72;5059700;28;20040;-90
2022/01/09 06:45:29;;;;;;;7.35;3.78;;;;;;;-2.77;66.27;91264.09;5078495;28;20036;-91
2022/01/09 06:51:16;;;;;;;5.82;2.95;;;;;;;-3.02;66.62;91195.34;5075355;28;20601;-88
2022/01/09 06:53:47;;;;;;;7.63;3.55;;;;;;;-2.62;64.90;91193.56;5044650;28;20051;-89
2022/01/09 06:56:15;;;;;;;6.03;3.33;;;;;;;-2.50;64.57;91194.22;5057015;28;20033;-89
2022/01/09 06:58:54;;;;;;;6.35;3.80;;;;;;;-2.22;64.27;91244.53;5076117;28;20028;-90
2022/01/09 07:01:50;;;;;;;12.77;5.25;;;;;;;-2.27;64.78;91243.69;5065014;28;20040;-89
2022/01/09 07:05:06;;;;;;;9.77;3.38;;;;;;;-2.65;65.04;91199.19;5054188;28;20044;-91
2022/01/09 07:07:35;;;;;;;4.63;2.78;;;;;;;-2.37;65.57;91242.56;5055341;28;20066;-89
2022/01/09 07:10:10;;;;;;;7.53;3.10;;;;;;;-2.69;65.70;91201.44;5054766;28;20023;-89
2022/01/09 07:12:44;;;;;;;5.35;2.90;;;;;;;-2.31;65.43;91251.88;5053940;28;20380;-89
2022/01/09 07:15:15;;;;;;;3.20;1.80;;;;;;;-2.72;65.86;91192.44;5075478;28;20061;-89
2022/01/09 07:17:58;;;;;;;2.45;1.48;;;;;;;-2.67;66.36;91186.59;5074719;28;20032;-89
2022/01/09 07:20:34;;;;;;;;;;;;;;;;;;;;;
2022/01/09 07:23:04;;;;;;;5.28;2.90;;;;;;;-2.14;68.44;91230.50;5092728;28;20089;-89
2022/01/09 07:25:39;;;;;;;11.15;5.78;;;;;;;-2.32;68.05;91206.75;5058965;28;20500;-89
2022/01/09 07:28:12;;;;;;;6.85;2.92;;;;;;;-2.17;67.47;91236.13;5058151;28;20046;-89
2022/01/09 07:30:50;;;;;;;4.13;2.22;;;;;;;-2.41;66.84;91203.06;5069548;28;20089;-89
2022/01/09 07:33:22;;;;;;;6.05;2.58;;;;;;;-2.07;66.92;91251.66;5027727;28;20036;-89
2022/01/09 07:36:27;;;;;;;3.97;2.45;;;;;;;-2.36;66.64;91208.25;5076933;28;20740;-89
2022/01/09 07:39:07;;;;;;;5.10;2.38;;;;;;;-2.35;66.33;91203.88;5071647;28;20083;-90
2022/01/09 07:41:49;;;;;;;4.13;2.40;;;;;;;-1.94;66.00;91256.38;5072829;28;20036;-89
2022/01/09 07:44:20;;;;;;;4.13;2.00;;;;;;;-1.94;65.91;91246.13;5063150;28;20036;-89
2022/01/09 07:47:26;;;;;;;;;;;;;;;;;;;;;
2022/01/09 07:50:09;;;;;;;2.88;1.50;;;;;;;-1.70;65.47;91262.03;5088271;28;20047;-89
2022/01/09 07:53:18;;;;;;;;;;;;;;;;;;;;;
2022/01/09 07:56:05;;;;;;;3.47;1.80;;;;;;;-1.73;64.82;91224.03;5079962;28;20028;-88
2022/01/09 07:58:42;;;;;;;4.63;1.83;;;;;;;-1.71;64.73;91208.41;5081273;28;20522;-88
2022/01/09 08:01:36;;;;;;;2.38;1.50;;;;;;;-1.48;64.49;91227.84;5081984;28;20066;-89
2022/01/09 08:04:25;;;;;;;2.53;1.60;;;;;;;-1.33;63.41;91214.34;5070009;28;20516;-88
2022/01/09 08:07:20;;;;;;;2.88;1.63;;;;;;;-0.15;61.32;91251.84;5073193;28;20045;-92
2022/01/09 08:10:01;;;;;;;4.35;2.17;;;;;;;0.51;57.83;91214.47;5064982;28;20186;-92
2022/01/09 08:19:42;;;;;;;;;;;;;;;;;;;;;
2022/01/09 08:22:46;;;;;;;;;;;;;;;;;;;;;
2022/01/09 08:25:19;;;;;;;5.35;2.30;;;;;;;5.95;43.17;91240.81;5069265;28;20047;-89
2022/01/09 08:28:09;;;;;;;3.10;1.70;;;;;;;7.54;40.56;91257.53;5068359;28;20395;-90
2022/01/09 08:38:31;;;;;;;3.38;1.55;;;;;;;16.12;26.49;91209.94;5084289;28;20623;-93
2022/01/09 08:49:30;;;;;;;3.53;1.70;;;;;;;10.66;30.75;91271.22;4968262;28;20138;-92
2022/01/09 08:51:55;;;;;;;5.32;2.20;;;;;;;9.39;33.07;91264.59;4983472;28;20080;-92
2022/01/09 08:58:47;;;;;;;5.43;2.80;;;;;;;9.28;33.89;91274.56;5076816;28;20044;-92
2022/01/09 09:13:09;;;;;;;8.90;5.18;;;;;;;12.06;31.58;91267.28;5076088;28;20055;-92
2022/01/09 09:19:26;;;;;;;4.10;2.03;;;;;;;11.72;30.53;91252.59;5077026;28;19969;-91
2022/01/09 09:25:19;;;;;;;3.15;1.80;;;;;;;10.56;30.82;91261.88;5075597;28;20119;-91
2022/01/09 09:27:46;;;;;;;8.93;3.63;;;;;;;10.01;31.99;91258.19;5054794;28;20481;-91
2022/01/09 10:06:02;;;;;;;3.95;2.17;;;;;;;7.71;37.24;91231.59;5091520;28;20062;-90
2022/01/09 10:20:29;;;;;;;4.63;2.30;;;;;;;8.77;35.92;91208.19;5093753;28;20098;-90
2022/01/09 10:47:12;;;;;;;6.38;1.83;;;;;;;10.64;31.60;91182.56;5092836;28;20050;-91
2022/01/09 10:53:34;;;;;;;3.85;1.80;;;;;;;11.22;30.16;91172.28;5093282;28;20054;-91
2022/01/09 11:00:50;;;;;;;13.70;8.02;;;;;;;10.55;37.32;91177.38;5092956;28;20082;-90
2022/01/09 11:16:51;;;;;;;9.17;5.03;;;;;;;9.57;39.62;91179.16;5094426;28;20070;-90
2022/01/09 11:23:52;;;;;;;7.07;3.60;;;;;;;9.54;37.67;91171.91;5093310;28;20074;-90
2022/01/09 11:26:18;;;;;;;7.30;3.13;;;;;;;9.87;36.91;91173.97;5058715;28;20090;-91
2022/01/09 11:32:59;;;;;;;6.00;3.30;;;;;;;9.41;38.25;91178.09;5093103;28;20127;-90
2022/01/09 11:43:19;;;;;;;9.73;3.83;;;;;;;9.66;40.31;91177.28;5092482;28;20074;-90
2022/01/09 11:45:51;;;;;;;6.10;3.22;;;;;;;9.21;40.65;91182.09;5052249;28;20119;-90
2022/01/09 11:48:42;;;;;;;8.77;3.90;;;;;;;8.78;43.40;91188.09;5079651;28;20024;-89
2022/01/09 11:51:09;;;;;;;9.38;5.43;;;;;;;8.23;44.04;91179.69;5065783;28;20036;-89
2022/01/09 11:53:56;;;;;;;6.57;3.20;;;;;;;7.93;45.43;91187.25;5089963;28;20078;-88
2022/01/09 11:56:46;;;;;;;6.30;3.67;;;;;;;7.27;47.70;91191.50;5088256;28;20098;-90
2022/01/09 11:59:30;;;;;;;6.05;3.60;;;;;;;7.10;47.03;91184.38;5076043;28;20036;-91
2022/01/09 12:01:57;;;;;;;7.47;3.88;;;;;;;7.06;47.13;91170.41;5087436;28;20064;-90
2022/01/09 12:04:38;;;;;;;6.05;3.05;;;;;;;6.92;47.50;91185.31;5078453;28;20382;-90
2022/01/09 12:07:10;;;;;;;5.63;3.08;;;;;;;7.04;47.43;91190.75;5076166;28;20040;-90
2022/01/09 12:09:50;;;;;;;2.45;1.63;;;;;;;6.27;49.03;91197.59;5076115;28;20040;-90
2022/01/09 12:12:20;;;;;;;3.85;2.20;;;;;;;5.92;49.98;91199.00;5061442;28;20066;-90
2022/01/09 12:15:30;;;;;;;6.07;3.03;;;;;;;6.73;48.82;91204.41;5078492;28;20477;-90
2022/01/09 12:18:47;;;;;;;5.47;2.90;;;;;;;7.84;44.83;91190.91;5057800;27;20043;-90
2022/01/09 12:21:40;;;;;;;5.22;2.40;;;;;;;7.58;44.83;91193.38;5080795;28;20066;-90
2022/01/09 12:25:50;;;;;;;;;;;;;;;;;;;;;
2022/01/09 12:29:22;;;;;;;;;;;;;;;;;;;;;
2022/01/09 12:33:22;;;;;;;;;;;;;;;;;;;;;
2022/01/09 12:40:10;;;;;;;4.70;2.75;;;;;;;7.12;47.65;91197.09;5011878;28;20041;-90
2022/01/09 12:42:46;;;;;;;4.32;2.28;;;;;;;7.00;45.19;91150.75;4991127;28;21006;-90
2022/01/09 12:46:40;;;;;;;;;;;;;;;;;;;;;
2022/01/09 12:53:54;;;;;;;;;;;;;;;;;;;;;
2022/01/09 13:00:33;;;;;;;;;;;;;;;;;;;;;
2022/01/09 13:03:38;;;;;;;4.13;2.53;;;;;;;6.60;46.63;91132.44;5101812;28;20036;-90
2022/01/09 13:06:26;;;;;;;;;;;;;;;;;;;;;
2022/01/09 13:46:23;;;;;;;6.10;3.25;;;;;;;7.62;43.98;91191.72;5148571;27;20368;-76
2022/01/09 13:48:50;;;;;;;24.27;17.50;;;;;;;7.79;44.21;91201.44;5117028;27;20042;-76
2022/01/09 13:51:17;;;;;;;8.95;5.85;;;;;;;7.49;44.56;91194.09;5133486;27;20029;-77
2022/01/09 13:54:02;;;;;;;11.20;4.07;;;;;;;8.11;44.08;91190.69;5126799;27;20023;-76
2022/01/09 13:56:29;;;;;;;5.85;3.15;;;;;;;8.59;42.26;91185.78;5127879;27;20490;-77
2022/01/09 13:58:56;;;;;;;6.63;3.33;;;;;;;8.84;41.28;91187.63;5108531;27;20122;-77
2022/01/09 14:01:52;;;;;;;7.45;3.10;;;;;;;8.26;42.78;91180.91;5116836;27;20026;-77
2022/01/09 14:04:20;;;;;;;7.35;3.33;;;;;;;7.42;45.33;91179.97;5124815;27;20015;-77
2022/01/09 14:07:13;;;;;;;5.72;2.60;;;;;;;6.70;46.77;91186.06;5126077;28;20777;-78
2022/01/09 14:09:39;;;;;;;;;;;;;;;6.75;47.09;91191.91;5126886;28;20047;-77
2022/01/09 14:12:11;;;;;;;7.40;3.28;;;;;;;6.88;46.80;91193.69;5109277;28;19907;-76
2022/01/09 14:14:42;;;;;;;6.28;3.53;;;;;;;7.17;46.17;91195.13;5127111;27;20102;-77
2022/01/09 14:17:27;;;;;;;5.45;3.03;;;;;;;7.33;45.09;91189.56;5127531;27;20070;-77
2022/01/09 14:19:58;;;;;;;8.32;3.60;;;;;;;7.35;45.53;91188.19;5117419;27;20035;-77
2022/01/09 14:22:38;;;;;;;9.00;3.65;;;;;;;8.24;44.17;91178.63;5123887;28;20100;-77
2022/01/09 14:25:07;;;;;;;5.53;3.17;;;;;;;8.76;42.44;91183.19;5121878;28;20659;-77
2022/01/09 14:27:35;;;;;;;6.07;3.38;;;;;;;8.88;39.78;91185.94;5123765;28;20023;-77
2022/01/09 14:30:19;;;;;;;5.57;3.03;;;;;;;8.86;39.31;91179.50;5109847;28;20031;-77
2022/01/09 14:32:47;;;;;;;7.05;3.13;;;;;;;8.58;40.43;91179.00;5125145;27;20498;-77
2022/01/09 14:35:29;;;;;;;6.57;3.25;;;;;;;8.34;39.55;91183.53;5107583;28;20118;-78
2022/01/09 14:38:02;;;;;;;;;;;;;;;8.26;39.95;91179.09;5128536;27;20071;-79
2022/01/09 14:40:28;;;;;;;6.07;2.90;;;;;;;8.39;40.24;91174.06;5126090;28;20007;-76
2022/01/09 14:42:54;;;;;;;5.30;2.90;;;;;;;8.39;39.29;91187.84;5106954;28;20073;-77
2022/01/09 14:45:21;;;;;;;6.97;3.13;;;;;;;7.68;41.76;91188.69;5124962;27;20043;-77
2022/01/09 14:47:48;;;;;;;5.97;3.38;;;;;;;8.09;41.88;91192.84;5102316;27;20097;-76
2022/01/09 14:50:15;;;;;;;8.32;4.30;;;;;;;8.34;40.68;91198.44;5091921;28;20252;-77
2022/01/09 14:52:41;;;;;;;6.43;3.30;;;;;;;8.68;39.43;91183.94;5105390;28;20030;-77
2022/01/09 14:55:08;;;;;;;11.98;4.95;;;;;;;8.54;39.98;91189.31;5110876;28;20062;-77
2022/01/09 14:57:35;;;;;;;9.75;4.85;;;;;;;8.75;39.39;91189.47;5111180;28;20088;-77
2022/01/09 15:00:03;;;;;;;5.75;2.97;;;;;;;8.96;39.20;91190.41;5111529;28;20114;-77
2022/01/09 15:02:29;;;;;;;6.80;3.40;;;;;;;8.64;38.81;91194.22;5114500;28;20019;-77
2022/01/09 15:04:55;;;;;;;6.57;3.08;;;;;;;8.36;38.97;91195.53;5098039;28;20402;-78
2022/01/09 15:07:20;;;;;;;9.05;3.63;;;;;;;7.62;39.53;91202.13;5092908;28;20085;-76
2022/01/09 15:09:46;;;;;;;6.03;2.80;;;;;;;6.93;38.33;91199.84;5103848;27;20043;-77
2022/01/09 15:12:13;;;;;;;6.38;3.10;;;;;;;6.63;41.99;91199.44;5103433;27;20047;-76
2022/01/09 15:14:40;;;;;;;10.20;3.05;;;;;;;6.19;43.97;91203.44;5118196;27;20073;-77
2022/01/09 15:17:05;;;;;;;4.93;2.50;;;;;;;5.79;41.15;91203.16;5093557;28;20024;-76
2022/01/09 15:19:32;;;;;;;4.97;2.42;;;;;;;5.58;42.52;91203.50;5111109;27;20413;-76
2022/01/09 15:21:59;;;;;;;4.68;2.40;;;;;;;5.41;42.49;91211.84;5110812;28;20137;-76
2022/01/09 15:24:24;;;;;;;4.53;2.53;;;;;;;5.28;42.79;91214.41;5111109;27;20059;-75
2022/01/09 15:26:52;;;;;;;5.95;2.85;;;;;;;5.06;44.36;91213.16;5111691;27;20096;-77
2022/01/09 15:29:17;;;;;;;5.85;2.88;;;;;;;4.86;45.53;91224.59;5086761;27;20035;-76
2022/01/09 15:31:43;;;;;;;7.43;3.53;;;;;;;4.72;45.11;91224.53;5107817;27;20046;-75
2022/01/09 15:34:08;;;;;;;8.60;3.00;;;;;;;4.41;46.08;91224.16;5104342;27;20024;-77
2022/01/09 15:36:34;;;;;;;6.90;3.97;;;;;;;4.28;46.84;91220.47;5102952;27;20035;-74
2022/01/09 15:39:00;;;;;;;7.47;4.22;;;;;;;4.08;48.47;91226.66;5074155;28;20728;-76
2022/01/09 15:41:26;;;;;;;7.55;3.88;;;;;;;4.04;48.32;91233.41;5112015;28;20051;-76
2022/01/09 15:43:51;;;;;;;7.80;3.65;;;;;;;3.89;49.39;91236.94;5111203;27;20066;-75
2022/01/09 15:46:17;;;;;;;7.75;4.05;;;;;;;3.80;49.06;91236.00;5116748;27;20449;-76
2022/01/09 15:48:50;;;;;;;8.73;4.47;;;;;;;3.72;50.37;91239.22;5109217;28;20413;-76
2022/01/09 15:51:19;;;;;;;8.70;4.32;;;;;;;3.59;50.17;91242.44;5105303;28;20154;-76
2022/01/09 15:53:45;;;;;;;7.63;4.10;;;;;;;3.40;50.49;91248.31;5095881;27;20126;-76
2022/01/09 15:56:12;;;;;;;8.38;3.47;;;;;;;3.19;50.89;91247.69;5109870;27;20035;-76
2022/01/09 15:58:41;;;;;;;6.93;3.90;;;;;;;3.10;50.06;91244.13;5107767;28;20039;-75
2022/01/09 16:01:06;;;;;;;7.82;4.18;;;;;;;3.02;50.06;91248.06;5110936;28;20073;-75
2022/01/09 16:03:33;;;;;;;7.68;3.70;;;;;;;2.83;50.23;91255.69;5103481;28;20502;-77
2022/01/09 16:06:02;;;;;;;10.93;5.20;;;;;;;2.69;50.98;91259.91;5104463;28;20040;-77
2022/01/09 16:08:32;;;;;;;8.90;4.40;;;;;;;2.55;51.37;91257.16;5101654;27;20039;-75
2022/01/09 16:10:58;;;;;;;9.05;4.47;;;;;;;2.46;49.44;91261.34;5111401;28;20040;-75
2022/01/09 16:13:26;;;;;;;8.18;4.32;;;;;;;2.37;49.29;91262.94;5093052;28;20039;-76
2022/01/09 16:15:53;;;;;;;11.32;4.40;;;;;;;2.23;47.56;91263.50;5109809;28;20031;-76
2022/01/09 16:18:20;;;;;;;7.35;3.20;;;;;;;2.14;45.92;91267.66;5109912;28;20032;-76
2022/01/09 16:20:45;;;;;;;2.80;1.23;;;;;;;2.11;40.86;91263.00;5100641;28;20467;-75
2022/01/09 16:23:11;;;;;;;2.95;1.40;;;;;;;2.20;37.70;91269.19;5105675;28;20059;-75
2022/01/09 16:25:37;;;;;;;3.80;1.30;;;;;;;2.25;37.80;91276.94;5078812;28;20134;-76
2022/01/09 16:28:02;;;;;;;15.10;5.03;;;;;;;2.29;40.29;91277.16;5107059;28;20035;-75
2022/01/09 16:30:28;;;;;;;16.27;5.70;;;;;;;2.25;41.67;91278.72;5110748;28;20042;-76
2022/01/09 16:32:54;;;;;;;11.40;5.50;;;;;;;2.13;42.46;91291.94;5108992;28;20042;-75
2022/01/09 16:35:21;;;;;;;7.28;3.38;;;;;;;1.99;42.34;91278.03;5107173;28;20063;-75
2022/01/09 16:37:46;;;;;;;4.00;1.90;;;;;;;1.93;40.77;91289.41;5109151;28;20057;-75
2022/01/09 16:40:12;;;;;;;3.45;1.45;;;;;;;1.88;40.30;91283.22;5089911;28;20036;-74
2022/01/09 16:42:38;;;;;;;2.72;1.40;;;;;;;1.83;40.02;91290.97;5090894;28;20028;-75
2022/01/09 16:45:05;;;;;;;4.85;2.70;;;;;;;1.79;40.43;91291.75;5106441;27;20601;-74
2022/01/09 16:47:31;;;;;;;4.72;2.70;;;;;;;1.77;37.92;91289.44;5109668;28;20058;-75
2022/01/09 16:49:57;;;;;;;3.58;1.92;;;;;;;1.83;36.79;91285.81;5109672;27;20420;-74
2022/01/09 16:52:23;;;;;;;3.90;1.50;;;;;;;1.85;36.56;91291.50;5111337;28;20032;-75
2022/01/09 16:54:49;;;;;;;1.67;1.08;;;;;;;1.84;37.36;91286.59;5109548;27;20054;-75
2022/01/09 16:57:15;;;;;;;3.03;1.10;;;;;;;1.81;37.64;91295.63;5109191;28;20482;-74
2022/01/09 16:59:41;;;;;;;2.38;1.10;;;;;;;1.82;36.20;91294.59;5110923;28;20040;-74
2022/01/09 17:02:07;;;;;;;1.90;1.20;;;;;;;1.88;36.49;91293.53;5110949;28;20152;-75
2022/01/09 17:04:32;;;;;;;9.20;2.83;;;;;;;1.88;36.04;91292.78;5110400;27;20016;-76
2022/01/09 17:06:58;;;;;;;2.75;1.35;;;;;;;1.93;36.26;91299.72;5088411;28;20047;-76
2022/01/09 17:09:24;;;;;;;2.60;1.00;;;;;;;1.95;36.55;91297.66;5105724;27;20089;-77
2022/01/09 17:11:50;;;;;;;0.70;0.60;;;;;;;1.94;36.75;91299.47;5110694;28;20027;-78
2022/01/09 17:14:15;;;;;;;1.95;0.80;;;;;;;2.06;35.95;91304.34;5063580;28;20161;-78
2022/01/09 17:16:41;;;;;;;10.13;3.60;;;;;;;2.03;35.94;91304.88;5100204;28;20126;-78
2022/01/09 17:19:07;;;;;;;2.83;1.23;;;;;;;1.99;36.22;91307.19;5111871;27;20043;-80
2022/01/09 17:21:32;;;;;;;0.82;0.80;;;;;;;1.94;36.92;91306.44;5094352;28;20035;-79
2022/01/09 17:23:58;;;;;;;1.27;0.95;;;;;;;2.02;37.08;91306.66;5086267;28;20464;-79
2022/01/09 17:26:24;;;;;;;1.60;1.20;;;;;;;1.91;36.76;91310.31;5113853;28;20035;-79